sensor_id;sensor_type;location;lat;lon;timestamp;pressure;altitude;pressure_sealevel;temperature;humidity
24620;BME280;12763;55.802;37.404;2024-03-07T00:00:11;100402.22;;;-2.15;50.21
24620;BME280;12763;55.802;37.404;2024-03-07T00:02:45;100394.63;;;-2.10;50.22
24620;BME280;12763;55.802;37.404;2024-03-07T00:05:12;100394.25;;;-2.16;49.84
24620;BME280;12763;55.802;37.404;2024-03-07T00:07:38;100391.53;;;-2.16;49.91
24620;BME280;12763;55.802;37.404;2024-03-07T00:10:06;100383.53;;;-2.18;49.95
24620;BME280;12763;55.802;37.404;2024-03-07T00:12:34;100384.34;;;-2.28;50.19
24620;BME280;12763;55.802;37.404;2024-03-07T00:15:02;100387.56;;;-2.23;49.34
24620;BME280;12763;55.802;37.404;2024-03-07T00:17:31;100388.78;;;-2.27;49.72
24620;BME280;12763;55.802;37.404;2024-03-07T00:19:57;100389.19;;;-2.45;49.62
24620;BME280;12763;55.802;37.404;2024-03-07T00:22:23;100379.31;;;-2.57;49.87
24620;BME280;12763;55.802;37.404;2024-03-07T00:24:53;100382.31;;;-2.49;50.34
24620;BME280;12763;55.802;37.404;2024-03-07T00:27:19;100373.94;;;-2.46;50.20
24620;BME280;12763;55.802;37.404;2024-03-07T00:29:47;100378.03;;;-2.40;50.27
24620;BME280;12763;55.802;37.404;2024-03-07T00:32:22;100383.44;;;-2.40;50.18
24620;BME280;12763;55.802;37.404;2024-03-07T00:34:49;100372.97;;;-2.45;50.44
24620;BME280;12763;55.802;37.404;2024-03-07T00:37:18;100371.75;;;-2.52;50.53
24620;BME280;12763;55.802;37.404;2024-03-07T00:39:44;100370.00;;;-2.53;50.60
24620;BME280;12763;55.802;37.404;2024-03-07T00:42:11;100372.69;;;-2.53;50.42
24620;BME280;12763;55.802;37.404;2024-03-07T00:44:37;100370.13;;;-2.54;50.41
24620;BME280;12763;55.802;37.404;2024-03-07T00:47:03;100374.38;;;-2.63;50.84
24620;BME280;12763;55.802;37.404;2024-03-07T00:49:30;100368.56;;;-2.69;51.40
24620;BME280;12763;55.802;37.404;2024-03-07T00:51:59;100366.59;;;-2.67;50.99
24620;BME280;12763;55.802;37.404;2024-03-07T00:54:26;100362.53;;;-2.73;50.74
24620;BME280;12763;55.802;37.404;2024-03-07T00:56:52;100366.97;;;-2.72;50.92
24620;BME280;12763;55.802;37.404;2024-03-07T00:59:19;100360.81;;;-2.74;51.35
24620;BME280;12763;55.802;37.404;2024-03-07T01:01:45;100358.34;;;-2.77;51.60
24620;BME280;12763;55.802;37.404;2024-03-07T01:04:11;100360.28;;;-2.79;51.80
24620;BME280;12763;55.802;37.404;2024-03-07T01:06:37;100359.88;;;-2.85;52.11
24620;BME280;12763;55.802;37.404;2024-03-07T01:09:03;100369.31;;;-2.91;52.93
24620;BME280;12763;55.802;37.404;2024-03-07T01:11:30;100366.84;;;-2.94;52.99
24620;BME280;12763;55.802;37.404;2024-03-07T01:13:56;100369.75;;;-2.97;53.16
24620;BME280;12763;55.802;37.404;2024-03-07T01:16:22;100363.09;;;-3.04;53.48
24620;BME280;12763;55.802;37.404;2024-03-07T01:18:48;100365.94;;;-3.18;53.89
24620;BME280;12763;55.802;37.404;2024-03-07T01:21:14;100363.56;;;-3.23;53.85
24620;BME280;12763;55.802;37.404;2024-03-07T01:23:41;100364.00;;;-3.16;53.83
24620;BME280;12763;55.802;37.404;2024-03-07T01:26:07;100364.94;;;-3.17;53.81
24620;BME280;12763;55.802;37.404;2024-03-07T01:28:34;100358.59;;;-3.16;54.07
24620;BME280;12763;55.802;37.404;2024-03-07T01:31:00;100347.78;;;-3.16;54.10
24620;BME280;12763;55.802;37.404;2024-03-07T01:33:26;100347.56;;;-3.13;54.03
24620;BME280;12763;55.802;37.404;2024-03-07T01:35:52;100351.22;;;-3.14;53.89
24620;BME280;12763;55.802;37.404;2024-03-07T01:38:19;100344.56;;;-3.21;54.46
24620;BME280;12763;55.802;37.404;2024-03-07T01:40:45;100350.63;;;-3.30;53.91
24620;BME280;12763;55.802;37.404;2024-03-07T01:43:11;100352.16;;;-3.26;54.11
24620;BME280;12763;55.802;37.404;2024-03-07T01:45:38;100345.81;;;-3.14;53.38
24620;BME280;12763;55.802;37.404;2024-03-07T01:48:09;100345.22;;;-3.18;53.47
24620;BME280;12763;55.802;37.404;2024-03-07T01:50:36;100345.66;;;-3.36;53.44
24620;BME280;12763;55.802;37.404;2024-03-07T01:53:09;100343.00;;;-3.49;53.91
24620;BME280;12763;55.802;37.404;2024-03-07T01:55:37;100345.66;;;-3.36;53.06
24620;BME280;12763;55.802;37.404;2024-03-07T01:58:04;100341.97;;;-3.23;52.53
24620;BME280;12763;55.802;37.404;2024-03-07T02:00:31;100333.81;;;-3.46;52.04
24620;BME280;12763;55.802;37.404;2024-03-07T02:02:57;100329.03;;;-3.30;51.35
24620;BME280;12763;55.802;37.404;2024-03-07T02:05:23;100347.19;;;-3.32;51.69
24620;BME280;12763;55.802;37.404;2024-03-07T02:07:50;100339.19;;;-3.34;51.35
24620;BME280;12763;55.802;37.404;2024-03-07T02:10:16;100339.41;;;-3.37;51.47
24620;BME280;12763;55.802;37.404;2024-03-07T02:12:44;100338.44;;;-3.36;51.33
24620;BME280;12763;55.802;37.404;2024-03-07T02:15:13;100336.34;;;-3.20;50.31
24620;BME280;12763;55.802;37.404;2024-03-07T02:17:40;100323.28;;;-3.26;50.74
24620;BME280;12763;55.802;37.404;2024-03-07T02:20:06;100318.72;;;-3.13;50.46
24620;BME280;12763;55.802;37.404;2024-03-07T02:22:39;100322.44;;;-2.90;49.74
24620;BME280;12763;55.802;37.404;2024-03-07T02:25:08;100323.41;;;-2.91;49.85
24620;BME280;12763;55.802;37.404;2024-03-07T02:27:37;100315.53;;;-2.94;49.53
24620;BME280;12763;55.802;37.404;2024-03-07T02:30:04;100309.09;;;-3.04;49.79
24620;BME280;12763;55.802;37.404;2024-03-07T02:32:31;100314.00;;;-2.98;49.72
24620;BME280;12763;55.802;37.404;2024-03-07T02:34:58;100321.06;;;-2.95;49.42
24620;BME280;12763;55.802;37.404;2024-03-07T02:37:24;100323.34;;;-3.02;49.95
24620;BME280;12763;55.802;37.404;2024-03-07T02:39:50;100313.41;;;-3.02;49.66
24620;BME280;12763;55.802;37.404;2024-03-07T02:42:16;100313.72;;;-3.06;49.43
24620;BME280;12763;55.802;37.404;2024-03-07T02:44:42;100308.31;;;-3.06;50.01
24620;BME280;12763;55.802;37.404;2024-03-07T02:47:07;100310.00;;;-3.16;49.94
24620;BME280;12763;55.802;37.404;2024-03-07T02:49:33;100313.50;;;-3.39;50.47
24620;BME280;12763;55.802;37.404;2024-03-07T02:52:00;100319.81;;;-3.51;50.72
24620;BME280;12763;55.802;37.404;2024-03-07T02:54:26;100317.44;;;-3.56;51.03
24620;BME280;12763;55.802;37.404;2024-03-07T02:56:52;100312.69;;;-3.52;51.68
24620;BME280;12763;55.802;37.404;2024-03-07T02:59:17;100305.59;;;-3.53;51.64
24620;BME280;12763;55.802;37.404;2024-03-07T03:01:43;100320.47;;;-3.61;51.84
24620;BME280;12763;55.802;37.404;2024-03-07T03:04:09;100309.91;;;-3.64;52.29
24620;BME280;12763;55.802;37.404;2024-03-07T03:06:35;100316.38;;;-3.66;52.15
24620;BME280;12763;55.802;37.404;2024-03-07T03:09:01;100308.94;;;-3.75;52.54
24620;BME280;12763;55.802;37.404;2024-03-07T03:11:27;100312.81;;;-3.67;52.13
24620;BME280;12763;55.802;37.404;2024-03-07T03:13:53;100312.06;;;-3.69;51.73
24620;BME280;12763;55.802;37.404;2024-03-07T03:16:19;100306.88;;;-3.59;52.01
24620;BME280;12763;55.802;37.404;2024-03-07T03:18:45;100310.19;;;-3.56;51.52
24620;BME280;12763;55.802;37.404;2024-03-07T03:21:11;100301.22;;;-3.43;50.58
24620;BME280;12763;55.802;37.404;2024-03-07T03:23:37;100307.50;;;-3.43;51.05
24620;BME280;12763;55.802;37.404;2024-03-07T03:26:03;100300.19;;;-3.53;50.85
24620;BME280;12763;55.802;37.404;2024-03-07T03:28:29;100299.34;;;-3.30;50.77
24620;BME280;12763;55.802;37.404;2024-03-07T03:30:55;100296.06;;;-3.46;50.80
24620;BME280;12763;55.802;37.404;2024-03-07T03:33:21;100295.91;;;-3.45;50.19
24620;BME280;12763;55.802;37.404;2024-03-07T03:35:47;100298.31;;;-3.40;50.72
24620;BME280;12763;55.802;37.404;2024-03-07T03:38:14;100306.88;;;-3.59;50.99
24620;BME280;12763;55.802;37.404;2024-03-07T03:40:40;100303.88;;;-3.80;51.92
24620;BME280;12763;55.802;37.404;2024-03-07T03:43:05;100306.56;;;-3.80;51.54
24620;BME280;12763;55.802;37.404;2024-03-07T03:45:32;100296.44;;;-3.76;51.35
24620;BME280;12763;55.802;37.404;2024-03-07T03:47:59;100302.81;;;-3.90;52.09
24620;BME280;12763;55.802;37.404;2024-03-07T03:50:25;100297.63;;;-3.80;51.57
24620;BME280;12763;55.802;37.404;2024-03-07T03:52:52;100296.00;;;-3.70;51.17
24620;BME280;12763;55.802;37.404;2024-03-07T03:55:18;100298.22;;;-3.64;50.77
24620;BME280;12763;55.802;37.404;2024-03-07T03:57:45;100292.81;;;-3.51;50.47
24620;BME280;12763;55.802;37.404;2024-03-07T04:00:14;100298.06;;;-3.74;50.69
24620;BME280;12763;55.802;37.404;2024-03-07T04:02:41;100295.03;;;-3.82;51.03
24620;BME280;12763;55.802;37.404;2024-03-07T04:05:09;100289.84;;;-3.72;50.75
24620;BME280;12763;55.802;37.404;2024-03-07T04:07:35;100284.13;;;-3.80;50.78
24620;BME280;12763;55.802;37.404;2024-03-07T04:10:02;100292.88;;;-3.77;51.11
24620;BME280;12763;55.802;37.404;2024-03-07T04:12:36;100279.94;;;-3.84;51.38
24620;BME280;12763;55.802;37.404;2024-03-07T04:15:04;100279.84;;;-3.95;51.36
24620;BME280;12763;55.802;37.404;2024-03-07T04:17:31;100281.69;;;-3.96;51.33
24620;BME280;12763;55.802;37.404;2024-03-07T04:19:57;100281.78;;;-4.10;51.81
24620;BME280;12763;55.802;37.404;2024-03-07T04:22:26;100286.22;;;-4.09;52.15
24620;BME280;12763;55.802;37.404;2024-03-07T04:24:52;100288.25;;;-4.25;53.07
24620;BME280;12763;55.802;37.404;2024-03-07T04:27:21;100288.16;;;-4.11;52.28
24620;BME280;12763;55.802;37.404;2024-03-07T04:29:48;100282.44;;;-4.06;52.53
24620;BME280;12763;55.802;37.404;2024-03-07T04:32:15;100287.19;;;-4.10;52.39
24620;BME280;12763;55.802;37.404;2024-03-07T04:34:44;100286.09;;;-4.07;52.39
24620;BME280;12763;55.802;37.404;2024-03-07T04:37:10;100281.91;;;-3.99;51.89
24620;BME280;12763;55.802;37.404;2024-03-07T04:39:40;100283.22;;;-4.17;52.81
24620;BME280;12763;55.802;37.404;2024-03-07T04:42:24;100285.66;;;-3.89;51.96
24620;BME280;12763;55.802;37.404;2024-03-07T04:44:51;100275.84;;;-3.90;51.37
24620;BME280;12763;55.802;37.404;2024-03-07T04:47:17;100277.34;;;-4.11;51.78
24620;BME280;12763;55.802;37.404;2024-03-07T04:49:43;100271.44;;;-3.91;51.44
24620;BME280;12763;55.802;37.404;2024-03-07T04:52:09;100269.38;;;-3.87;51.27
24620;BME280;12763;55.802;37.404;2024-03-07T04:54:35;100276.50;;;-3.99;51.26
24620;BME280;12763;55.802;37.404;2024-03-07T04:57:02;100276.25;;;-3.71;51.27
24620;BME280;12763;55.802;37.404;2024-03-07T04:59:28;100266.72;;;-3.64;50.91
24620;BME280;12763;55.802;37.404;2024-03-07T05:01:53;100270.09;;;-3.73;50.08
24620;BME280;12763;55.802;37.404;2024-03-07T05:04:19;100267.81;;;-3.66;50.46
24620;BME280;12763;55.802;37.404;2024-03-07T05:06:45;100274.00;;;-3.77;50.32
24620;BME280;12763;55.802;37.404;2024-03-07T05:09:16;100273.69;;;-3.85;50.93
24620;BME280;12763;55.802;37.404;2024-03-07T05:11:51;100268.91;;;-3.69;50.33
24620;BME280;12763;55.802;37.404;2024-03-07T05:14:19;100280.03;;;-3.86;50.07
24620;BME280;12763;55.802;37.404;2024-03-07T05:16:46;100272.34;;;-3.67;49.86
24620;BME280;12763;55.802;37.404;2024-03-07T05:19:14;100264.69;;;-3.36;50.10
24620;BME280;12763;55.802;37.404;2024-03-07T05:21:39;100264.31;;;-3.43;50.19
24620;BME280;12763;55.802;37.404;2024-03-07T05:24:08;100269.13;;;-3.59;49.94
24620;BME280;12763;55.802;37.404;2024-03-07T05:26:35;100272.13;;;-3.64;49.96
24620;BME280;12763;55.802;37.404;2024-03-07T05:29:07;100270.72;;;-3.57;49.64
24620;BME280;12763;55.802;37.404;2024-03-07T05:31:35;100271.59;;;-3.69;49.71
24620;BME280;12763;55.802;37.404;2024-03-07T05:34:02;100278.47;;;-3.52;49.14
24620;BME280;12763;55.802;37.404;2024-03-07T05:36:37;100280.72;;;-3.46;49.16
24620;BME280;12763;55.802;37.404;2024-03-07T05:41:57;100262.72;;;-3.45;48.46
24620;BME280;12763;55.802;37.404;2024-03-07T05:44:23;100265.91;;;-3.77;48.72
24620;BME280;12763;55.802;37.404;2024-03-07T05:46:49;100260.06;;;-3.34;48.69
24620;BME280;12763;55.802;37.404;2024-03-07T05:49:16;100248.50;;;-3.36;48.05
24620;BME280;12763;55.802;37.404;2024-03-07T05:51:46;100253.47;;;-3.30;48.55
24620;BME280;12763;55.802;37.404;2024-03-07T05:54:12;100254.03;;;-3.38;48.16
24620;BME280;12763;55.802;37.404;2024-03-07T05:56:40;100266.72;;;-3.64;48.93
24620;BME280;12763;55.802;37.404;2024-03-07T05:59:07;100246.38;;;-3.44;48.44
24620;BME280;12763;55.802;37.404;2024-03-07T06:01:38;100260.16;;;-3.36;48.57
24620;BME280;12763;55.802;37.404;2024-03-07T06:04:06;100266.44;;;-3.35;48.75
24620;BME280;12763;55.802;37.404;2024-03-07T06:06:34;100246.59;;;-3.47;48.27
24620;BME280;12763;55.802;37.404;2024-03-07T06:09:03;100253.16;;;-3.38;48.82
24620;BME280;12763;55.802;37.404;2024-03-07T06:11:38;100251.78;;;-3.20;48.86
24620;BME280;12763;55.802;37.404;2024-03-07T06:14:06;100249.56;;;-3.26;48.61
24620;BME280;12763;55.802;37.404;2024-03-07T06:16:37;100236.47;;;-2.96;48.62
24620;BME280;12763;55.802;37.404;2024-03-07T06:19:05;100242.00;;;-2.86;48.40
24620;BME280;12763;55.802;37.404;2024-03-07T06:21:36;100234.16;;;-2.78;48.22
24620;BME280;12763;55.802;37.404;2024-03-07T06:24:03;100229.59;;;-2.54;47.72
24620;BME280;12763;55.802;37.404;2024-03-07T06:26:30;100236.34;;;-2.60;48.25
24620;BME280;12763;55.802;37.404;2024-03-07T06:29:15;100231.44;;;-2.55;48.08
24620;BME280;12763;55.802;37.404;2024-03-07T06:31:42;100217.78;;;-2.53;48.35
24620;BME280;12763;55.802;37.404;2024-03-07T06:34:09;100227.53;;;-2.28;47.47
24620;BME280;12763;55.802;37.404;2024-03-07T06:36:35;100223.63;;;-2.24;47.50
24620;BME280;12763;55.802;37.404;2024-03-07T06:39:02;100225.59;;;-1.82;47.91
24620;BME280;12763;55.802;37.404;2024-03-07T06:41:35;100231.50;;;-1.88;47.70
24620;BME280;12763;55.802;37.404;2024-03-07T06:44:02;100228.81;;;-1.77;47.27
24620;BME280;12763;55.802;37.404;2024-03-07T06:46:28;100229.53;;;-1.75;47.22
24620;BME280;12763;55.802;37.404;2024-03-07T06:48:55;100226.09;;;-1.88;47.19
24620;BME280;12763;55.802;37.404;2024-03-07T06:51:24;100216.81;;;-1.41;46.60
24620;BME280;12763;55.802;37.404;2024-03-07T06:53:50;100215.22;;;-1.44;47.04
24620;BME280;12763;55.802;37.404;2024-03-07T06:56:17;100213.66;;;-1.14;46.45
24620;BME280;12763;55.802;37.404;2024-03-07T06:58:43;100210.91;;;-1.03;46.73
24620;BME280;12763;55.802;37.404;2024-03-07T07:01:13;100206.94;;;-1.31;46.96
24620;BME280;12763;55.802;37.404;2024-03-07T07:03:41;100212.50;;;-1.01;46.27
24620;BME280;12763;55.802;37.404;2024-03-07T07:06:10;100205.75;;;-1.06;46.24
24620;BME280;12763;55.802;37.404;2024-03-07T07:08:37;100205.50;;;-0.83;46.07
24620;BME280;12763;55.802;37.404;2024-03-07T07:11:03;100204.47;;;-0.91;45.96
24620;BME280;12763;55.802;37.404;2024-03-07T07:13:32;100205.19;;;-0.89;46.41
24620;BME280;12763;55.802;37.404;2024-03-07T07:15:58;100197.47;;;-0.73;46.48
24620;BME280;12763;55.802;37.404;2024-03-07T07:18:24;100193.78;;;-0.72;46.09
24620;BME280;12763;55.802;37.404;2024-03-07T07:20:50;100202.31;;;-0.88;46.43
24620;BME280;12763;55.802;37.404;2024-03-07T07:23:19;100191.94;;;-1.03;46.83
24620;BME280;12763;55.802;37.404;2024-03-07T07:25:46;100202.72;;;-0.72;47.07
24620;BME280;12763;55.802;37.404;2024-03-07T07:28:12;100204.59;;;-0.72;46.48
24620;BME280;12763;55.802;37.404;2024-03-07T07:30:39;100208.16;;;-0.30;45.90
24620;BME280;12763;55.802;37.404;2024-03-07T07:33:06;100204.47;;;-0.29;45.94
24620;BME280;12763;55.802;37.404;2024-03-07T07:35:32;100192.03;;;-0.32;45.83
24620;BME280;12763;55.802;37.404;2024-03-07T07:38:00;100188.47;;;-0.02;45.72
24620;BME280;12763;55.802;37.404;2024-03-07T07:40:26;100184.69;;;0.20;45.72
24620;BME280;12763;55.802;37.404;2024-03-07T07:42:54;100184.47;;;0.32;44.89
24620;BME280;12763;55.802;37.404;2024-03-07T07:45:22;100183.22;;;0.06;45.12
24620;BME280;12763;55.802;37.404;2024-03-07T07:47:51;100174.50;;;0.03;45.48
24620;BME280;12763;55.802;37.404;2024-03-07T07:50:20;100178.63;;;-0.03;46.07
24620;BME280;12763;55.802;37.404;2024-03-07T07:52:54;100170.28;;;0.19;45.28
24620;BME280;12763;55.802;37.404;2024-03-07T07:55:28;100173.75;;;0.40;45.40
24620;BME280;12763;55.802;37.404;2024-03-07T07:57:55;100170.63;;;0.45;45.22
24620;BME280;12763;55.802;37.404;2024-03-07T08:00:23;100164.09;;;0.76;45.30
24620;BME280;12763;55.802;37.404;2024-03-07T08:02:53;100167.97;;;0.74;44.47
24620;BME280;12763;55.802;37.404;2024-03-07T08:05:21;100160.41;;;0.77;45.31
24620;BME280;12763;55.802;37.404;2024-03-07T08:07:51;100152.13;;;0.88;45.03
24620;BME280;12763;55.802;37.404;2024-03-07T08:10:18;100154.25;;;0.85;45.46
24620;BME280;12763;55.802;37.404;2024-03-07T08:12:45;100149.94;;;0.92;45.18
24620;BME280;12763;55.802;37.404;2024-03-07T08:15:12;100145.94;;;1.15;44.67
24620;BME280;12763;55.802;37.404;2024-03-07T08:17:47;100144.91;;;1.45;44.79
24620;BME280;12763;55.802;37.404;2024-03-07T08:20:18;100140.19;;;1.28;44.93
24620;BME280;12763;55.802;37.404;2024-03-07T08:22:47;100131.13;;;1.65;44.56
24620;BME280;12763;55.802;37.404;2024-03-07T08:25:14;100128.78;;;2.07;44.26
24620;BME280;12763;55.802;37.404;2024-03-07T08:27:42;100131.66;;;2.06;44.27
24620;BME280;12763;55.802;37.404;2024-03-07T08:30:10;100131.97;;;2.03;44.41
24620;BME280;12763;55.802;37.404;2024-03-07T08:32:44;100139.59;;;2.26;43.83
24620;BME280;12763;55.802;37.404;2024-03-07T08:35:11;100134.84;;;2.01;44.17
24620;BME280;12763;55.802;37.404;2024-03-07T08:37:39;100124.75;;;2.11;43.88
24620;BME280;12763;55.802;37.404;2024-03-07T08:40:07;100129.81;;;2.33;43.98
24620;BME280;12763;55.802;37.404;2024-03-07T08:42:36;100124.16;;;2.17;43.93
24620;BME280;12763;55.802;37.404;2024-03-07T08:45:04;100122.41;;;2.26;44.19
24620;BME280;12763;55.802;37.404;2024-03-07T08:47:34;100108.69;;;2.18;44.17
24620;BME280;12763;55.802;37.404;2024-03-07T08:50:01;100122.13;;;2.47;43.50
24620;BME280;12763;55.802;37.404;2024-03-07T08:52:30;100110.81;;;2.86;43.56
24620;BME280;12763;55.802;37.404;2024-03-07T08:54:57;100114.59;;;3.11;42.63
24620;BME280;12763;55.802;37.404;2024-03-07T08:57:23;100115.66;;;3.18;42.27
24620;BME280;12763;55.802;37.404;2024-03-07T08:59:50;100115.91;;;3.07;42.55
24620;BME280;12763;55.802;37.404;2024-03-07T09:02:16;100109.00;;;3.56;42.55
24620;BME280;12763;55.802;37.404;2024-03-07T09:04:42;100105.41;;;3.55;42.14
24620;BME280;12763;55.802;37.404;2024-03-07T09:07:08;100116.47;;;3.28;42.37
24620;BME280;12763;55.802;37.404;2024-03-07T09:09:34;100109.53;;;3.16;43.22
24620;BME280;12763;55.802;37.404;2024-03-07T09:12:01;100101.63;;;3.56;42.77
24620;BME280;12763;55.802;37.404;2024-03-07T09:14:27;100100.53;;;3.41;42.25
24620;BME280;12763;55.802;37.404;2024-03-07T09:16:53;100103.63;;;3.46;42.37
24620;BME280;12763;55.802;37.404;2024-03-07T09:19:19;100094.53;;;3.38;42.39
24620;BME280;12763;55.802;37.404;2024-03-07T09:21:53;100090.34;;;3.77;41.82
24620;BME280;12763;55.802;37.404;2024-03-07T09:24:20;100101.91;;;3.45;41.74
24620;BME280;12763;55.802;37.404;2024-03-07T09:26:50;100095.72;;;3.61;41.98
24620;BME280;12763;55.802;37.404;2024-03-07T09:29:18;100095.59;;;3.71;41.19
24620;BME280;12763;55.802;37.404;2024-03-07T09:31:49;100095.59;;;3.71;41.80
24620;BME280;12763;55.802;37.404;2024-03-07T09:34:18;100070.97;;;3.88;42.14
24620;BME280;12763;55.802;37.404;2024-03-07T09:36:44;100067.94;;;3.99;41.21
24620;BME280;12763;55.802;37.404;2024-03-07T09:39:11;100067.06;;;3.99;41.42
24620;BME280;12763;55.802;37.404;2024-03-07T09:41:42;100075.97;;;4.09;41.43
24620;BME280;12763;55.802;37.404;2024-03-07T09:44:09;100070.13;;;4.38;41.25
24620;BME280;12763;55.802;37.404;2024-03-07T09:46:38;100074.91;;;4.36;42.10
24620;BME280;12763;55.802;37.404;2024-03-07T09:49:05;100088.75;;;4.50;40.83
24620;BME280;12763;55.802;37.404;2024-03-07T09:51:33;100075.47;;;4.55;41.09
24620;BME280;12763;55.802;37.404;2024-03-07T09:54:01;100077.72;;;4.84;40.81
24620;BME280;12763;55.802;37.404;2024-03-07T09:56:27;100066.97;;;5.07;40.71
24620;BME280;12763;55.802;37.404;2024-03-07T09:58:57;100071.75;;;5.29;39.97
24620;BME280;12763;55.802;37.404;2024-03-07T10:01:26;100055.59;;;5.66;39.97
24620;BME280;12763;55.802;37.404;2024-03-07T10:03:58;100062.75;;;5.83;39.17
24620;BME280;12763;55.802;37.404;2024-03-07T10:06:24;100054.28;;;6.17;39.39
24620;BME280;12763;55.802;37.404;2024-03-07T10:08:55;100055.78;;;6.59;38.08
24620;BME280;12763;55.802;37.404;2024-03-07T10:11:21;100055.41;;;6.31;38.78
24620;BME280;12763;55.802;37.404;2024-03-07T10:13:48;100057.69;;;6.81;38.75
24620;BME280;12763;55.802;37.404;2024-03-07T10:16:18;100062.69;;;7.23;38.26
24620;BME280;12763;55.802;37.404;2024-03-07T10:18:44;100057.41;;;6.90;38.14
24620;BME280;12763;55.802;37.404;2024-03-07T10:21:14;100053.66;;;6.91;37.95
24620;BME280;12763;55.802;37.404;2024-03-07T10:23:42;100054.22;;;7.09;38.16
24620;BME280;12763;55.802;37.404;2024-03-07T10:26:10;100058.16;;;7.07;37.98
24620;BME280;12763;55.802;37.404;2024-03-07T10:28:37;100066.59;;;7.05;38.18
24620;BME280;12763;55.802;37.404;2024-03-07T10:31:04;100048.34;;;7.13;38.15
24620;BME280;12763;55.802;37.404;2024-03-07T10:33:39;100048.50;;;7.48;37.51
24620;BME280;12763;55.802;37.404;2024-03-07T10:36:05;100048.88;;;7.31;37.54
24620;BME280;12763;55.802;37.404;2024-03-07T10:38:39;100043.75;;;7.28;38.28
24620;BME280;12763;55.802;37.404;2024-03-07T10:41:06;100039.69;;;7.38;37.78
24620;BME280;12763;55.802;37.404;2024-03-07T10:43:36;100044.31;;;8.19;37.02
24620;BME280;12763;55.802;37.404;2024-03-07T10:46:05;100040.53;;;8.05;36.23
24620;BME280;12763;55.802;37.404;2024-03-07T10:48:38;100028.09;;;7.80;36.28
24620;BME280;12763;55.802;37.404;2024-03-07T10:59:27;100010.81;;;9.29;35.76
24620;BME280;12763;55.802;37.404;2024-03-07T11:02:11;100006.81;;;9.60;34.90
24620;BME280;12763;55.802;37.404;2024-03-07T11:04:42;100006.66;;;10.02;34.57
24620;BME280;12763;55.802;37.404;2024-03-07T11:07:09;100001.03;;;10.71;34.34
24620;BME280;12763;55.802;37.404;2024-03-07T11:09:38;99993.91;;;11.29;33.64
24620;BME280;12763;55.802;37.404;2024-03-07T11:12:09;99993.69;;;11.24;33.80
24620;BME280;12763;55.802;37.404;2024-03-07T11:14:37;99984.97;;;11.72;33.26
24620;BME280;12763;55.802;37.404;2024-03-07T11:17:04;99981.06;;;12.06;32.77
24620;BME280;12763;55.802;37.404;2024-03-07T11:19:34;99974.63;;;12.12;32.28
24620;BME280;12763;55.802;37.404;2024-03-07T11:22:04;99972.41;;;13.10;31.69
24620;BME280;12763;55.802;37.404;2024-03-07T11:24:41;99969.78;;;12.52;31.70
24620;BME280;12763;55.802;37.404;2024-03-07T11:27:11;99976.28;;;13.09;30.62
24620;BME280;12763;55.802;37.404;2024-03-07T11:29:45;99966.94;;;13.77;30.59
24620;BME280;12763;55.802;37.404;2024-03-07T11:32:13;99971.59;;;14.38;30.25
24620;BME280;12763;55.802;37.404;2024-03-07T11:34:41;99967.31;;;13.99;30.10
24620;BME280;12763;55.802;37.404;2024-03-07T11:37:09;99971.56;;;14.56;29.66
24620;BME280;12763;55.802;37.404;2024-03-07T11:39:47;99962.03;;;13.73;29.45
24620;BME280;12763;55.802;37.404;2024-03-07T11:42:26;99963.69;;;14.53;28.99
24620;BME280;12763;55.802;37.404;2024-03-07T11:44:53;99955.03;;;14.91;28.82
24620;BME280;12763;55.802;37.404;2024-03-07T11:47:23;99961.34;;;14.98;29.19
24620;BME280;12763;55.802;37.404;2024-03-07T11:49:50;99964.78;;;15.23;28.74
24620;BME280;12763;55.802;37.404;2024-03-07T11:52:18;99958.44;;;15.69;28.52
24620;BME280;12763;55.802;37.404;2024-03-07T11:54:44;99951.09;;;15.51;28.63
24620;BME280;12763;55.802;37.404;2024-03-07T11:57:15;99950.31;;;15.33;28.76
24620;BME280;12763;55.802;37.404;2024-03-07T11:59:42;99955.34;;;15.12;28.66
24620;BME280;12763;55.802;37.404;2024-03-07T12:02:15;99946.94;;;14.89;27.96
24620;BME280;12763;55.802;37.404;2024-03-07T12:04:41;99940.28;;;13.33;30.02
24620;BME280;12763;55.802;37.404;2024-03-07T12:07:07;99944.38;;;13.49;29.63
24620;BME280;12763;55.802;37.404;2024-03-07T12:09:37;99929.44;;;13.50;29.40
24620;BME280;12763;55.802;37.404;2024-03-07T12:12:07;99944.78;;;12.96;29.94
24620;BME280;12763;55.802;37.404;2024-03-07T12:14:35;99930.06;;;12.71;30.55
24620;BME280;12763;55.802;37.404;2024-03-07T12:17:01;99939.22;;;13.52;29.90
24620;BME280;12763;55.802;37.404;2024-03-07T12:19:33;99934.72;;;13.76;29.52
24620;BME280;12763;55.802;37.404;2024-03-07T12:22:02;99931.38;;;13.25;28.98
24620;BME280;12763;55.802;37.404;2024-03-07T12:24:29;99922.34;;;12.73;30.08
24620;BME280;12763;55.802;37.404;2024-03-07T12:27:09;99926.50;;;11.30;30.73
24620;BME280;12763;55.802;37.404;2024-03-07T12:29:36;99916.03;;;11.77;30.97
24620;BME280;12763;55.802;37.404;2024-03-07T12:32:05;99919.34;;;12.06;30.78
24620;BME280;12763;55.802;37.404;2024-03-07T12:34:37;99914.94;;;12.98;29.75
24620;BME280;12763;55.802;37.404;2024-03-07T12:37:07;99913.75;;;13.62;29.31
24620;BME280;12763;55.802;37.404;2024-03-07T12:39:35;99913.84;;;13.74;29.14
24620;BME280;12763;55.802;37.404;2024-03-07T12:42:06;99912.66;;;13.63;29.06
24620;BME280;12763;55.802;37.404;2024-03-07T12:44:42;99909.34;;;12.05;30.27
24620;BME280;12763;55.802;37.404;2024-03-07T12:47:17;99908.53;;;11.98;29.98
24620;BME280;12763;55.802;37.404;2024-03-07T12:49:44;99897.81;;;12.52;30.21
24620;BME280;12763;55.802;37.404;2024-03-07T12:52:11;99895.66;;;13.17;29.22
24620;BME280;12763;55.802;37.404;2024-03-07T12:54:41;99894.22;;;12.76;29.51
24620;BME280;12763;55.802;37.404;2024-03-07T12:57:09;99897.81;;;12.52;29.27